Terminal Aerodrome Forecast
Issued by NWS Upton, NY

Home | Current Version | Previous Version | Text Only | Print | Product List | Glossary On
Versions: 1 2 3 4 5 6 7 8 9 10 11 12 13 14 15 16 17 18 19 20 21 22 23 24 25 26 27 28 29 30 31 32 33 34 35 36
000
FTUS41 KOKX 250838 AAA
TAFBDR
TAF AMD
KBDR 250838Z 2509/2606 00000KT P6SM SCT100
     FM251000 34003KT P6SM SKC
     FM251600 23009KT P6SM FEW080
     FM251900 21011KT P6SM FEW080
      TEMPO 2519/2522 20011G18KT
     FM252300 23009KT P6SM SCT060
     FM260500 27004KT P6SM FEW060=

USA.gov is the U.S. government's official web portal to all federal, state and local government web resources and services.